createdAt,value
2023-01-06T00:01:46.315Z,100546.40
2023-01-06T00:06:50.101Z,100561.00
2023-01-06T00:11:53.929Z,100567.20
2023-01-06T00:16:57.714Z,100571.20
2023-01-06T00:22:01.472Z,100572.20
2023-01-06T00:27:05.236Z,100561.60
2023-01-06T00:32:08.994Z,100577.00
2023-01-06T00:37:12.595Z,100585.60
2023-01-06T00:42:16.289Z,100590.40
2023-01-06T00:47:20.988Z,100599.00
2023-01-06T00:52:24.935Z,100615.20
2023-01-06T00:57:28.804Z,100620.60
2023-01-06T01:02:32.639Z,100622.60
2023-01-06T01:07:36.432Z,100625.20
2023-01-06T01:12:40.512Z,100638.00
2023-01-06T01:17:44.497Z,100636.00
2023-01-06T01:22:48.369Z,100646.60
2023-01-06T01:27:53.098Z,100666.20
2023-01-06T01:32:56.849Z,100663.00
2023-01-06T01:38:00.489Z,100673.40
2023-01-06T01:43:04.382Z,100685.00
2023-01-06T01:48:28.726Z,100687.80
2023-01-06T01:53:47.482Z,100704.00
2023-01-06T01:59:15.391Z,100712.00
2023-01-06T02:04:22.494Z,100718.80
2023-01-06T02:09:39.604Z,100723.60
2023-01-06T02:14:43.627Z,100719.60
2023-01-06T02:20:28.227Z,100734.20
2023-01-06T02:26:11.398Z,100735.60
2023-01-06T02:32:07.613Z,100742.00
2023-01-06T02:37:26.392Z,100745.20
2023-01-06T02:43:18.439Z,100748.60
2023-01-06T02:48:28.924Z,100758.40
2023-01-06T02:53:43.999Z,100761.80
2023-01-06T02:59:14.792Z,100762.80
2023-01-06T03:04:29.450Z,100767.00
2023-01-06T03:09:40.033Z,100774.80
2023-01-06T03:14:51.877Z,100776.60
2023-01-06T03:19:56.123Z,100779.80
2023-01-06T03:25:02.500Z,100784.60
2023-01-06T03:30:11.919Z,100783.00
2023-01-06T03:35:36.910Z,100798.80
2023-01-06T03:40:54.043Z,100798.00
2023-01-06T03:46:35.408Z,100798.20
2023-01-06T03:51:53.340Z,100799.20
2023-01-06T03:57:09.138Z,100797.00
2023-01-06T04:02:14.390Z,100798.80
2023-01-06T04:07:18.193Z,100811.20
2023-01-06T04:12:40.935Z,100809.80
2023-01-06T04:17:46.699Z,100813.00
2023-01-06T04:22:55.490Z,100827.80
2023-01-06T04:27:59.048Z,100823.80
2023-01-06T04:33:02.758Z,100825.80
2023-01-06T04:38:06.495Z,100835.40
2023-01-06T04:43:16.408Z,100832.20
2023-01-06T04:48:20.245Z,100841.20
2023-01-06T04:53:23.838Z,100836.20
2023-01-06T04:58:27.566Z,100836.40
2023-01-06T05:03:32.174Z,100837.60
2023-01-06T05:08:38.324Z,100827.40
2023-01-06T05:13:42.477Z,100834.20
2023-01-06T05:18:46.592Z,100822.40
2023-01-06T05:23:50.823Z,100827.60
2023-01-06T05:28:55.199Z,100840.40
2023-01-06T05:33:58.869Z,100848.00
2023-01-06T05:39:03.141Z,100856.20
2023-01-06T05:44:06.960Z,100863.00
2023-01-06T05:49:11.186Z,100875.00
2023-01-06T05:54:15.107Z,100878.00
2023-01-06T05:59:18.967Z,100876.80
2023-01-06T06:04:23.125Z,100879.00
2023-01-06T06:09:27.002Z,100893.40
2023-01-06T06:14:30.607Z,100895.00
2023-01-06T06:19:34.454Z,100900.00
2023-01-06T06:24:38.371Z,100904.00
2023-01-06T06:29:42.108Z,100920.20
2023-01-06T06:34:45.690Z,100920.00
2023-01-06T06:39:49.525Z,100930.20
2023-01-06T06:44:53.074Z,100931.80
2023-01-06T06:49:56.743Z,100933.00
2023-01-06T06:55:00.559Z,100933.40
2023-01-06T07:00:06.264Z,100932.80
2023-01-06T07:05:09.943Z,100925.20
2023-01-06T07:10:16.957Z,100927.80
2023-01-06T07:15:20.792Z,100927.60
2023-01-06T07:20:24.476Z,100921.80
2023-01-06T07:25:29.155Z,100927.00
2023-01-06T07:30:34.096Z,100923.20
2023-01-06T07:35:38.571Z,100924.80
2023-01-06T07:40:43.004Z,100923.80
2023-01-06T07:45:48.973Z,100932.20
2023-01-06T07:50:53.333Z,100937.80
2023-01-06T07:55:57.404Z,100938.60
2023-01-06T08:01:07.860Z,100937.40
2023-01-06T08:06:13.768Z,100932.80
2023-01-06T08:11:17.550Z,100924.60
2023-01-06T08:16:21.758Z,100928.40
2023-01-06T08:21:25.427Z,100928.20
2023-01-06T08:26:29.210Z,100932.80
2023-01-06T08:31:32.919Z,100939.20
2023-01-06T08:36:36.944Z,100932.00
2023-01-06T08:41:41.935Z,100933.40
2023-01-06T08:46:45.862Z,100937.80
2023-01-06T08:51:49.696Z,100945.80
2023-01-06T08:56:53.545Z,100944.00
2023-01-06T09:01:57.634Z,100945.20
2023-01-06T09:07:01.796Z,100940.60
2023-01-06T09:12:08.126Z,100944.60
2023-01-06T09:17:12.291Z,100959.40
2023-01-06T09:22:16.233Z,100950.00
2023-01-06T09:27:21.577Z,100939.80
2023-01-06T09:32:26.745Z,100929.20
2023-01-06T09:37:30.527Z,100915.80
2023-01-06T09:42:55.215Z,100906.20
2023-01-06T09:48:03.124Z,100883.60
2023-01-06T09:53:41.732Z,100894.00
2023-01-06T09:59:24.530Z,100899.60
2023-01-06T10:04:31.556Z,100890.80
2023-01-06T10:10:03.215Z,100890.60
2023-01-06T10:15:15.487Z,100878.20
2023-01-06T10:21:17.459Z,100872.60
2023-01-06T10:26:41.933Z,100863.60
2023-01-06T10:31:49.680Z,100852.00
2023-01-06T10:37:23.173Z,100838.20
2023-01-06T10:43:03.899Z,100834.80
2023-01-06T10:48:17.421Z,100841.00
2023-01-06T10:53:22.998Z,100852.40
2023-01-06T10:58:56.238Z,100848.00
2023-01-06T11:04:18.524Z,100852.40
2023-01-06T11:09:46.077Z,100848.20
2023-01-06T11:15:01.808Z,100847.40
2023-01-06T11:20:36.219Z,100853.80
2023-01-06T11:25:42.627Z,100851.60
2023-01-06T11:31:05.978Z,100843.60
2023-01-06T11:36:16.541Z,100837.40
2023-01-06T11:41:37.294Z,100831.20
2023-01-06T11:46:53.875Z,100825.80
2023-01-06T11:52:20.361Z,100815.60
2023-01-06T11:57:55.454Z,100816.40
2023-01-06T12:03:24.072Z,100819.20
2023-01-06T12:08:38.941Z,100813.60
2023-01-06T12:14:01.682Z,100809.20
2023-01-06T12:19:53.636Z,100808.00
2023-01-06T12:25:00.592Z,100797.00
2023-01-06T12:30:34.934Z,100788.80
2023-01-06T12:35:44.008Z,100778.80
2023-01-06T12:41:09.874Z,100772.80
2023-01-06T12:46:24.191Z,100762.40
2023-01-06T12:51:30.532Z,100742.00
2023-01-06T12:57:02.817Z,100730.80
2023-01-06T13:02:31.829Z,100721.00
2023-01-06T13:07:56.040Z,100703.40
2023-01-06T13:13:42.876Z,100697.60
2023-01-06T13:19:18.424Z,100689.00
2023-01-06T13:24:49.514Z,100687.60
2023-01-06T13:30:14.769Z,100680.40
2023-01-06T13:36:02.923Z,100670.40
2023-01-06T13:41:20.664Z,100667.80
2023-01-06T13:46:29.279Z,100653.80
2023-01-06T13:51:38.887Z,100655.20
2023-01-06T13:56:43.081Z,100652.60
2023-01-06T14:01:47.681Z,100654.40
2023-01-06T14:06:51.748Z,100652.40
2023-01-06T14:12:22.777Z,100659.80
2023-01-06T14:17:43.487Z,100652.60
2023-01-06T14:23:03.309Z,100656.00
2023-01-06T14:28:25.836Z,100664.40
2023-01-06T14:33:43.432Z,100660.00
2023-01-06T14:38:58.331Z,100649.60
2023-01-06T14:44:18.355Z,100642.60
2023-01-06T14:49:40.701Z,100633.40
2023-01-06T14:54:48.492Z,100629.00
2023-01-06T15:00:34.001Z,100618.20
2023-01-06T15:05:40.627Z,100619.20
2023-01-06T15:10:51.791Z,100616.00
2023-01-06T15:16:10.164Z,100612.20
2023-01-06T15:21:14.415Z,100602.60
2023-01-06T15:26:25.010Z,100588.80
2023-01-06T15:31:40.230Z,100575.80
2023-01-06T15:36:47.152Z,100574.20
2023-01-06T15:41:51.784Z,100567.20
2023-01-06T15:47:10.874Z,100561.40
2023-01-06T15:52:33.527Z,100545.20
2023-01-06T15:57:40.401Z,100531.40
2023-01-06T16:02:49.592Z,100535.40
2023-01-06T16:08:04.712Z,100538.40
2023-01-06T16:13:28.900Z,100531.00
2023-01-06T16:18:38.085Z,100518.80
2023-01-06T16:23:42.227Z,100514.60
2023-01-06T16:29:01.489Z,100505.40
2023-01-06T16:34:27.069Z,100497.20
2023-01-06T16:39:31.392Z,100490.40
2023-01-06T16:44:35.486Z,100482.20
2023-01-06T16:49:39.303Z,100483.40
2023-01-06T16:54:43.782Z,100469.80
2023-01-06T16:59:47.952Z,100456.80
2023-01-06T17:04:52.951Z,100453.80
2023-01-06T17:09:57.079Z,100438.80
2023-01-06T17:15:01.937Z,100436.60
2023-01-06T17:20:13.528Z,100437.80
2023-01-06T17:25:18.012Z,100443.80
2023-01-06T17:30:22.320Z,100437.60
2023-01-06T17:35:30.123Z,100427.80
2023-01-06T17:40:37.103Z,100414.60
2023-01-06T17:45:40.952Z,100408.20
2023-01-06T17:50:52.690Z,100403.20
2023-01-06T17:55:57.839Z,100406.40
2023-01-06T18:01:02.214Z,100402.60
2023-01-06T18:06:26.659Z,100402.60
2023-01-06T18:11:35.742Z,100409.60
2023-01-06T18:16:41.042Z,100427.60
2023-01-06T18:21:46.171Z,100429.00
2023-01-06T18:26:57.203Z,100428.80
2023-01-06T18:32:29.200Z,100421.40
2023-01-06T18:37:35.792Z,100420.80
2023-01-06T18:42:45.879Z,100410.00
2023-01-06T18:48:07.000Z,100397.20
2023-01-06T18:53:14.503Z,100403.20
2023-01-06T18:58:50.254Z,100403.60
2023-01-06T19:04:14.860Z,100397.20
2023-01-06T19:09:50.469Z,100386.00
2023-01-06T19:14:58.896Z,100393.80
2023-01-06T19:20:18.083Z,100393.20
2023-01-06T19:25:44.846Z,100397.20
2023-01-06T19:31:00.929Z,100397.40
2023-01-06T19:36:39.248Z,100406.20
2023-01-06T19:41:43.425Z,100405.80
2023-01-06T19:46:50.015Z,100395.00
2023-01-06T19:52:04.625Z,100396.40
2023-01-06T19:57:33.007Z,100398.40
2023-01-06T20:02:45.669Z,100407.00
2023-01-06T20:07:49.997Z,100412.40
2023-01-06T20:12:54.508Z,100409.80
2023-01-06T20:17:58.523Z,100417.20
2023-01-06T20:23:03.305Z,100423.20
2023-01-06T20:28:08.401Z,100423.20
2023-01-06T20:33:12.842Z,100411.40
2023-01-06T20:38:18.296Z,100406.60
2023-01-06T20:43:23.387Z,100403.00
2023-01-06T20:48:27.131Z,100407.60
2023-01-06T20:53:32.172Z,100405.20
2023-01-06T20:58:37.566Z,100412.60
2023-01-06T21:03:41.343Z,100413.80
2023-01-06T21:08:45.630Z,100412.60
2023-01-06T21:13:49.446Z,100423.20
2023-01-06T21:18:56.199Z,100436.80
2023-01-06T21:24:04.594Z,100442.20
2023-01-06T21:29:14.822Z,100420.00
2023-01-06T21:34:26.274Z,100404.40
2023-01-06T21:39:32.636Z,100412.60
2023-01-06T21:44:40.479Z,100412.80
2023-01-06T21:49:49.614Z,100405.80
2023-01-06T21:54:56.545Z,100401.80
2023-01-06T22:00:02.860Z,100404.00
2023-01-06T22:05:08.199Z,100407.20
2023-01-06T22:10:16.024Z,100404.20
2023-01-06T22:15:22.435Z,100404.40
2023-01-06T22:20:29.438Z,100405.40
2023-01-06T22:25:33.421Z,100413.40
2023-01-06T22:30:38.837Z,100415.00
2023-01-06T22:35:43.573Z,100426.40
2023-01-06T22:40:47.406Z,100421.20
2023-01-06T22:45:57.217Z,100426.80
2023-01-06T22:51:04.854Z,100418.60
2023-01-06T22:56:12.219Z,100421.40
2023-01-06T23:01:16.583Z,100411.20
2023-01-06T23:06:20.472Z,100430.40
2023-01-06T23:11:28.144Z,100420.00
2023-01-06T23:16:32.097Z,100428.80
2023-01-06T23:21:36.018Z,100437.80
2023-01-06T23:26:46.367Z,100450.80
2023-01-06T23:31:50.222Z,100452.20
2023-01-06T23:36:55.223Z,100448.60
2023-01-06T23:41:58.927Z,100453.20
2023-01-06T23:47:03.235Z,100461.00
2023-01-06T23:52:07.006Z,100457.20
2023-01-06T23:57:10.943Z,100444.60
